sensor_id;sensor_type;location;lat;lon;timestamp;P1;durP1;ratioP1;P2;durP2;ratioP2
22677;SDS011;26259;50.214;18.620;2023-02-28T00:00:44;25.23;;;12.77;;
22677;SDS011;26259;50.214;18.620;2023-02-28T00:03:10;29.27;;;12.87;;
22677;SDS011;26259;50.214;18.620;2023-02-28T00:05:35;28.10;;;12.97;;
22677;SDS011;26259;50.214;18.620;2023-02-28T00:08:01;28.53;;;12.90;;
22677;SDS011;26259;50.214;18.620;2023-02-28T00:10:28;26.27;;;11.77;;
22677;SDS011;26259;50.214;18.620;2023-02-28T00:12:55;28.73;;;12.03;;
22677;SDS011;26259;50.214;18.620;2023-02-28T00:15:25;26.60;;;12.50;;
22677;SDS011;26259;50.214;18.620;2023-02-28T00:17:51;26.77;;;12.80;;
22677;SDS011;26259;50.214;18.620;2023-02-28T00:20:17;31.07;;;14.27;;
22677;SDS011;26259;50.214;18.620;2023-02-28T00:22:43;26.53;;;12.60;;
22677;SDS011;26259;50.214;18.620;2023-02-28T00:25:12;32.63;;;15.17;;
22677;SDS011;26259;50.214;18.620;2023-02-28T00:27:39;33.73;;;14.30;;
22677;SDS011;26259;50.214;18.620;2023-02-28T00:30:06;31.70;;;16.27;;
22677;SDS011;26259;50.214;18.620;2023-02-28T00:32:34;35.60;;;16.30;;
22677;SDS011;26259;50.214;18.620;2023-02-28T00:35:00;38.00;;;19.37;;
22677;SDS011;26259;50.214;18.620;2023-02-28T00:37:26;37.57;;;16.27;;
22677;SDS011;26259;50.214;18.620;2023-02-28T00:39:52;31.57;;;15.20;;
22677;SDS011;26259;50.214;18.620;2023-02-28T00:42:17;36.10;;;16.83;;
22677;SDS011;26259;50.214;18.620;2023-02-28T00:44:43;32.40;;;15.93;;
22677;SDS011;26259;50.214;18.620;2023-02-28T00:47:08;53.23;;;23.87;;
22677;SDS011;26259;50.214;18.620;2023-02-28T00:49:34;75.00;;;29.67;;
22677;SDS011;26259;50.214;18.620;2023-02-28T00:51:59;50.93;;;22.13;;
22677;SDS011;26259;50.214;18.620;2023-02-28T00:54:25;45.43;;;19.97;;
22677;SDS011;26259;50.214;18.620;2023-02-28T00:56:51;41.20;;;18.87;;
22677;SDS011;26259;50.214;18.620;2023-02-28T00:59:17;46.60;;;19.83;;
22677;SDS011;26259;50.214;18.620;2023-02-28T01:01:43;34.07;;;15.27;;
22677;SDS011;26259;50.214;18.620;2023-02-28T01:04:09;36.93;;;16.23;;
22677;SDS011;26259;50.214;18.620;2023-02-28T01:06:36;35.93;;;16.20;;
22677;SDS011;26259;50.214;18.620;2023-02-28T01:09:02;30.77;;;16.17;;
22677;SDS011;26259;50.214;18.620;2023-02-28T01:11:29;27.47;;;13.17;;
22677;SDS011;26259;50.214;18.620;2023-02-28T01:13:55;28.23;;;12.83;;
22677;SDS011;26259;50.214;18.620;2023-02-28T01:16:20;24.97;;;12.27;;
22677;SDS011;26259;50.214;18.620;2023-02-28T01:18:46;27.30;;;12.87;;
22677;SDS011;26259;50.214;18.620;2023-02-28T01:21:13;29.70;;;13.83;;
22677;SDS011;26259;50.214;18.620;2023-02-28T01:23:40;32.30;;;13.33;;
22677;SDS011;26259;50.214;18.620;2023-02-28T01:26:07;29.13;;;13.77;;
22677;SDS011;26259;50.214;18.620;2023-02-28T01:28:35;27.17;;;12.80;;
22677;SDS011;26259;50.214;18.620;2023-02-28T01:31:01;29.47;;;13.87;;
22677;SDS011;26259;50.214;18.620;2023-02-28T01:33:27;28.43;;;14.67;;
22677;SDS011;26259;50.214;18.620;2023-02-28T01:36:06;28.80;;;14.50;;
22677;SDS011;26259;50.214;18.620;2023-02-28T01:38:38;28.37;;;13.43;;
22677;SDS011;26259;50.214;18.620;2023-02-28T01:41:04;29.63;;;13.50;;
22677;SDS011;26259;50.214;18.620;2023-02-28T01:43:32;28.07;;;13.87;;
22677;SDS011;26259;50.214;18.620;2023-02-28T01:46:07;32.73;;;14.30;;
22677;SDS011;26259;50.214;18.620;2023-02-28T01:48:33;28.03;;;13.07;;
22677;SDS011;26259;50.214;18.620;2023-02-28T01:51:03;24.77;;;13.13;;
22677;SDS011;26259;50.214;18.620;2023-02-28T01:53:35;29.40;;;14.43;;
22677;SDS011;26259;50.214;18.620;2023-02-28T01:56:08;27.53;;;13.53;;
22677;SDS011;26259;50.214;18.620;2023-02-28T01:58:36;29.90;;;13.40;;
22677;SDS011;26259;50.214;18.620;2023-02-28T02:01:02;28.33;;;12.93;;
22677;SDS011;26259;50.214;18.620;2023-02-28T02:03:29;31.80;;;14.97;;
22677;SDS011;26259;50.214;18.620;2023-02-28T02:05:56;28.80;;;15.03;;
22677;SDS011;26259;50.214;18.620;2023-02-28T02:08:25;30.83;;;14.83;;
22677;SDS011;26259;50.214;18.620;2023-02-28T02:10:57;30.47;;;14.77;;
22677;SDS011;26259;50.214;18.620;2023-02-28T02:13:37;26.73;;;12.83;;
22677;SDS011;26259;50.214;18.620;2023-02-28T02:21:16;29.67;;;13.43;;
22677;SDS011;26259;50.214;18.620;2023-02-28T02:37:50;39.43;;;16.63;;
22677;SDS011;26259;50.214;18.620;2023-02-28T02:40:32;41.23;;;17.07;;
22677;SDS011;26259;50.214;18.620;2023-02-28T02:43:22;35.13;;;16.30;;
22677;SDS011;26259;50.214;18.620;2023-02-28T02:45:55;36.67;;;15.93;;
22677;SDS011;26259;50.214;18.620;2023-02-28T02:48:37;43.70;;;17.17;;
22677;SDS011;26259;50.214;18.620;2023-02-28T02:51:10;39.70;;;16.50;;
22677;SDS011;26259;50.214;18.620;2023-02-28T02:53:49;37.93;;;15.87;;
22677;SDS011;26259;50.214;18.620;2023-02-28T02:56:23;35.10;;;16.13;;
22677;SDS011;26259;50.214;18.620;2023-02-28T02:58:52;36.30;;;16.17;;
22677;SDS011;26259;50.214;18.620;2023-02-28T03:01:22;31.60;;;15.77;;
22677;SDS011;26259;50.214;18.620;2023-02-28T03:04:13;34.83;;;16.03;;
22677;SDS011;26259;50.214;18.620;2023-02-28T03:06:44;36.87;;;16.27;;
22677;SDS011;26259;50.214;18.620;2023-02-28T03:09:09;37.03;;;14.93;;
22677;SDS011;26259;50.214;18.620;2023-02-28T03:11:35;37.50;;;16.57;;
22677;SDS011;26259;50.214;18.620;2023-02-28T03:33:30;38.93;;;17.77;;
22677;SDS011;26259;50.214;18.620;2023-02-28T03:36:18;36.00;;;16.80;;
22677;SDS011;26259;50.214;18.620;2023-02-28T03:41:19;36.67;;;17.17;;
22677;SDS011;26259;50.214;18.620;2023-02-28T03:43:53;34.50;;;16.83;;
22677;SDS011;26259;50.214;18.620;2023-02-28T03:46:22;39.23;;;16.60;;
22677;SDS011;26259;50.214;18.620;2023-02-28T03:51:51;40.83;;;18.93;;
22677;SDS011;26259;50.214;18.620;2023-02-28T03:54:21;38.50;;;18.60;;
22677;SDS011;26259;50.214;18.620;2023-02-28T03:57:10;38.87;;;17.73;;
22677;SDS011;26259;50.214;18.620;2023-02-28T03:59:59;39.00;;;18.73;;
22677;SDS011;26259;50.214;18.620;2023-02-28T04:02:39;43.80;;;18.83;;
22677;SDS011;26259;50.214;18.620;2023-02-28T04:05:05;37.43;;;18.17;;
22677;SDS011;26259;50.214;18.620;2023-02-28T04:07:32;36.20;;;17.63;;
22677;SDS011;26259;50.214;18.620;2023-02-28T04:09:58;45.23;;;20.20;;
22677;SDS011;26259;50.214;18.620;2023-02-28T04:12:24;39.53;;;18.93;;
22677;SDS011;26259;50.214;18.620;2023-02-28T04:14:50;40.60;;;19.10;;
22677;SDS011;26259;50.214;18.620;2023-02-28T04:17:16;38.60;;;19.97;;
22677;SDS011;26259;50.214;18.620;2023-02-28T04:19:41;40.13;;;19.23;;
22677;SDS011;26259;50.214;18.620;2023-02-28T04:22:09;36.13;;;18.20;;
22677;SDS011;26259;50.214;18.620;2023-02-28T04:24:35;39.53;;;19.40;;
22677;SDS011;26259;50.214;18.620;2023-02-28T04:27:01;37.07;;;18.30;;
22677;SDS011;26259;50.214;18.620;2023-02-28T04:29:30;61.83;;;26.37;;
22677;SDS011;26259;50.214;18.620;2023-02-28T04:31:57;52.43;;;24.40;;
22677;SDS011;26259;50.214;18.620;2023-02-28T04:34:24;222.00;;;59.67;;
22677;SDS011;26259;50.214;18.620;2023-02-28T04:36:53;208.43;;;57.23;;
22677;SDS011;26259;50.214;18.620;2023-02-28T04:39:20;51.33;;;22.00;;
22677;SDS011;26259;50.214;18.620;2023-02-28T04:41:47;36.13;;;18.73;;
22677;SDS011;26259;50.214;18.620;2023-02-28T04:44:13;37.80;;;18.60;;
22677;SDS011;26259;50.214;18.620;2023-02-28T04:46:39;38.47;;;18.90;;
22677;SDS011;26259;50.214;18.620;2023-02-28T04:49:05;40.63;;;20.33;;
22677;SDS011;26259;50.214;18.620;2023-02-28T04:51:30;39.80;;;19.37;;
22677;SDS011;26259;50.214;18.620;2023-02-28T04:53:56;280.63;;;70.83;;
22677;SDS011;26259;50.214;18.620;2023-02-28T04:56:22;64.57;;;26.47;;
22677;SDS011;26259;50.214;18.620;2023-02-28T04:58:48;49.83;;;23.20;;
22677;SDS011;26259;50.214;18.620;2023-02-28T05:01:18;62.73;;;24.40;;
22677;SDS011;26259;50.214;18.620;2023-02-28T05:03:47;55.50;;;23.83;;
22677;SDS011;26259;50.214;18.620;2023-02-28T05:06:13;66.33;;;25.50;;
22677;SDS011;26259;50.214;18.620;2023-02-28T05:08:40;86.07;;;30.13;;
22677;SDS011;26259;50.214;18.620;2023-02-28T05:11:13;70.57;;;27.77;;
22677;SDS011;26259;50.214;18.620;2023-02-28T05:14:02;75.47;;;25.67;;
22677;SDS011;26259;50.214;18.620;2023-02-28T05:16:35;105.53;;;34.67;;
22677;SDS011;26259;50.214;18.620;2023-02-28T05:19:00;170.30;;;49.20;;
22677;SDS011;26259;50.214;18.620;2023-02-28T05:21:27;235.07;;;62.93;;
22677;SDS011;26259;50.214;18.620;2023-02-28T05:23:55;148.13;;;46.93;;
22677;SDS011;26259;50.214;18.620;2023-02-28T05:26:22;132.53;;;45.87;;
22677;SDS011;26259;50.214;18.620;2023-02-28T05:28:48;77.47;;;33.67;;
22677;SDS011;26259;50.214;18.620;2023-02-28T05:31:14;63.60;;;29.57;;
22677;SDS011;26259;50.214;18.620;2023-02-28T05:33:40;54.97;;;27.93;;
22677;SDS011;26259;50.214;18.620;2023-02-28T05:36:05;61.73;;;28.73;;
22677;SDS011;26259;50.214;18.620;2023-02-28T05:38:32;54.77;;;26.73;;
22677;SDS011;26259;50.214;18.620;2023-02-28T05:40:57;74.63;;;30.93;;
22677;SDS011;26259;50.214;18.620;2023-02-28T05:43:23;62.60;;;25.50;;
22677;SDS011;26259;50.214;18.620;2023-02-28T05:45:49;59.73;;;25.37;;
22677;SDS011;26259;50.214;18.620;2023-02-28T05:48:15;52.23;;;25.10;;
22677;SDS011;26259;50.214;18.620;2023-02-28T05:50:41;54.63;;;25.67;;
22677;SDS011;26259;50.214;18.620;2023-02-28T05:53:07;113.30;;;35.37;;
22677;SDS011;26259;50.214;18.620;2023-02-28T05:55:33;69.33;;;28.60;;
22677;SDS011;26259;50.214;18.620;2023-02-28T05:58:00;54.30;;;24.70;;
22677;SDS011;26259;50.214;18.620;2023-02-28T06:00:26;46.23;;;22.67;;
22677;SDS011;26259;50.214;18.620;2023-02-28T06:02:52;45.43;;;23.20;;
22677;SDS011;26259;50.214;18.620;2023-02-28T06:05:21;43.50;;;21.03;;
22677;SDS011;26259;50.214;18.620;2023-02-28T06:07:47;46.03;;;22.77;;
22677;SDS011;26259;50.214;18.620;2023-02-28T06:10:13;48.77;;;24.17;;
22677;SDS011;26259;50.214;18.620;2023-02-28T06:12:39;44.30;;;23.23;;
22677;SDS011;26259;50.214;18.620;2023-02-28T06:15:06;48.03;;;22.20;;
22677;SDS011;26259;50.214;18.620;2023-02-28T06:17:32;47.33;;;22.87;;
22677;SDS011;26259;50.214;18.620;2023-02-28T06:19:58;50.20;;;23.07;;
22677;SDS011;26259;50.214;18.620;2023-02-28T06:22:24;44.67;;;22.70;;
22677;SDS011;26259;50.214;18.620;2023-02-28T06:24:49;50.83;;;22.83;;
22677;SDS011;26259;50.214;18.620;2023-02-28T06:27:15;46.50;;;23.07;;
22677;SDS011;26259;50.214;18.620;2023-02-28T06:29:41;50.10;;;23.20;;
22677;SDS011;26259;50.214;18.620;2023-02-28T06:32:06;41.17;;;22.63;;
22677;SDS011;26259;50.214;18.620;2023-02-28T06:34:32;51.23;;;23.50;;
22677;SDS011;26259;50.214;18.620;2023-02-28T06:36:58;41.37;;;23.60;;
22677;SDS011;26259;50.214;18.620;2023-02-28T06:39:27;53.00;;;24.53;;
22677;SDS011;26259;50.214;18.620;2023-02-28T06:41:53;47.43;;;22.53;;
22677;SDS011;26259;50.214;18.620;2023-02-28T06:44:18;43.53;;;23.13;;
22677;SDS011;26259;50.214;18.620;2023-02-28T06:46:44;45.73;;;23.10;;
22677;SDS011;26259;50.214;18.620;2023-02-28T06:49:11;46.73;;;22.57;;
22677;SDS011;26259;50.214;18.620;2023-02-28T06:51:37;49.20;;;23.30;;
22677;SDS011;26259;50.214;18.620;2023-02-28T06:54:07;44.10;;;23.70;;
22677;SDS011;26259;50.214;18.620;2023-02-28T06:56:35;46.37;;;22.47;;
22677;SDS011;26259;50.214;18.620;2023-02-28T06:59:02;43.37;;;22.20;;
22677;SDS011;26259;50.214;18.620;2023-02-28T07:01:28;44.07;;;24.10;;
22677;SDS011;26259;50.214;18.620;2023-02-28T07:03:54;44.43;;;23.93;;
22677;SDS011;26259;50.214;18.620;2023-02-28T07:06:21;39.90;;;21.10;;
22677;SDS011;26259;50.214;18.620;2023-02-28T07:08:50;50.60;;;22.73;;
22677;SDS011;26259;50.214;18.620;2023-02-28T07:11:17;43.50;;;23.07;;
22677;SDS011;26259;50.214;18.620;2023-02-28T07:13:43;45.00;;;21.70;;
22677;SDS011;26259;50.214;18.620;2023-02-28T07:16:11;42.27;;;22.70;;
22677;SDS011;26259;50.214;18.620;2023-02-28T07:18:37;38.40;;;21.03;;
22677;SDS011;26259;50.214;18.620;2023-02-28T07:21:07;46.00;;;20.50;;
22677;SDS011;26259;50.214;18.620;2023-02-28T07:23:34;39.50;;;21.03;;
22677;SDS011;26259;50.214;18.620;2023-02-28T07:26:00;37.90;;;20.07;;
22677;SDS011;26259;50.214;18.620;2023-02-28T07:28:26;41.07;;;20.77;;
22677;SDS011;26259;50.214;18.620;2023-02-28T07:30:52;42.37;;;20.80;;
22677;SDS011;26259;50.214;18.620;2023-02-28T07:33:17;42.17;;;20.73;;
22677;SDS011;26259;50.214;18.620;2023-02-28T07:35:43;38.30;;;21.13;;
22677;SDS011;26259;50.214;18.620;2023-02-28T07:38:09;43.83;;;22.10;;
22677;SDS011;26259;50.214;18.620;2023-02-28T07:40:35;45.27;;;21.37;;
22677;SDS011;26259;50.214;18.620;2023-02-28T07:43:01;42.87;;;22.67;;
22677;SDS011;26259;50.214;18.620;2023-02-28T07:45:28;45.53;;;23.23;;
22677;SDS011;26259;50.214;18.620;2023-02-28T07:47:54;46.43;;;21.93;;
22677;SDS011;26259;50.214;18.620;2023-02-28T07:50:20;47.63;;;23.37;;
22677;SDS011;26259;50.214;18.620;2023-02-28T07:52:46;45.33;;;20.17;;
22677;SDS011;26259;50.214;18.620;2023-02-28T07:55:12;40.77;;;20.90;;
22677;SDS011;26259;50.214;18.620;2023-02-28T07:57:39;45.43;;;22.10;;
22677;SDS011;26259;50.214;18.620;2023-02-28T08:00:06;41.80;;;19.53;;
22677;SDS011;26259;50.214;18.620;2023-02-28T08:02:35;41.77;;;20.80;;
22677;SDS011;26259;50.214;18.620;2023-02-28T08:05:01;39.60;;;19.20;;
22677;SDS011;26259;50.214;18.620;2023-02-28T08:07:27;48.10;;;24.17;;
22677;SDS011;26259;50.214;18.620;2023-02-28T08:09:52;43.00;;;23.63;;
22677;SDS011;26259;50.214;18.620;2023-02-28T08:12:18;41.03;;;19.50;;
22677;SDS011;26259;50.214;18.620;2023-02-28T08:14:44;38.87;;;18.20;;
22677;SDS011;26259;50.214;18.620;2023-02-28T08:17:10;35.23;;;15.97;;
22677;SDS011;26259;50.214;18.620;2023-02-28T08:19:36;36.10;;;19.17;;
22677;SDS011;26259;50.214;18.620;2023-02-28T08:22:02;26.50;;;16.53;;
22677;SDS011;26259;50.214;18.620;2023-02-28T08:24:27;32.50;;;17.30;;
22677;SDS011;26259;50.214;18.620;2023-02-28T08:26:53;27.93;;;15.23;;
22677;SDS011;26259;50.214;18.620;2023-02-28T08:29:19;27.20;;;15.30;;
22677;SDS011;26259;50.214;18.620;2023-02-28T08:31:45;31.00;;;14.97;;
22677;SDS011;26259;50.214;18.620;2023-02-28T08:34:12;27.40;;;14.40;;
22677;SDS011;26259;50.214;18.620;2023-02-28T08:36:39;20.10;;;12.13;;
22677;SDS011;26259;50.214;18.620;2023-02-28T08:39:06;30.47;;;13.57;;
22677;SDS011;26259;50.214;18.620;2023-02-28T08:41:32;27.50;;;14.63;;
22677;SDS011;26259;50.214;18.620;2023-02-28T08:43:58;31.40;;;15.27;;
22677;SDS011;26259;50.214;18.620;2023-02-28T08:46:25;22.87;;;13.90;;
22677;SDS011;26259;50.214;18.620;2023-02-28T08:48:54;24.17;;;13.50;;
22677;SDS011;26259;50.214;18.620;2023-02-28T08:51:21;29.10;;;15.43;;
22677;SDS011;26259;50.214;18.620;2023-02-28T08:53:51;28.50;;;16.30;;
22677;SDS011;26259;50.214;18.620;2023-02-28T08:56:22;28.80;;;14.23;;
22677;SDS011;26259;50.214;18.620;2023-02-28T08:58:48;44.40;;;20.10;;
22677;SDS011;26259;50.214;18.620;2023-02-28T09:01:16;28.43;;;14.53;;
22677;SDS011;26259;50.214;18.620;2023-02-28T09:03:43;29.27;;;14.70;;
22677;SDS011;26259;50.214;18.620;2023-02-28T09:06:11;27.50;;;14.80;;
22677;SDS011;26259;50.214;18.620;2023-02-28T09:08:37;26.77;;;15.37;;
22677;SDS011;26259;50.214;18.620;2023-02-28T09:11:03;23.23;;;13.77;;
22677;SDS011;26259;50.214;18.620;2023-02-28T09:13:29;23.73;;;12.93;;
22677;SDS011;26259;50.214;18.620;2023-02-28T09:15:57;17.93;;;10.40;;
22677;SDS011;26259;50.214;18.620;2023-02-28T09:18:24;20.07;;;10.50;;
22677;SDS011;26259;50.214;18.620;2023-02-28T09:20:51;17.73;;;9.70;;
22677;SDS011;26259;50.214;18.620;2023-02-28T09:23:16;16.93;;;10.13;;
22677;SDS011;26259;50.214;18.620;2023-02-28T09:25:46;16.47;;;10.20;;
22677;SDS011;26259;50.214;18.620;2023-02-28T09:28:13;19.30;;;10.50;;
22677;SDS011;26259;50.214;18.620;2023-02-28T09:30:46;17.47;;;9.20;;
22677;SDS011;26259;50.214;18.620;2023-02-28T09:33:14;16.27;;;9.50;;
22677;SDS011;26259;50.214;18.620;2023-02-28T09:35:40;17.60;;;8.70;;
22677;SDS011;26259;50.214;18.620;2023-02-28T09:38:07;16.73;;;9.60;;
22677;SDS011;26259;50.214;18.620;2023-02-28T09:40:35;17.30;;;9.57;;
22677;SDS011;26259;50.214;18.620;2023-02-28T09:43:04;21.30;;;10.40;;
22677;SDS011;26259;50.214;18.620;2023-02-28T09:45:32;20.50;;;10.47;;
22677;SDS011;26259;50.214;18.620;2023-02-28T09:48:03;17.70;;;10.60;;
22677;SDS011;26259;50.214;18.620;2023-02-28T09:50:46;18.90;;;10.97;;
22677;SDS011;26259;50.214;18.620;2023-02-28T09:53:32;15.97;;;9.23;;
22677;SDS011;26259;50.214;18.620;2023-02-28T09:56:04;19.50;;;9.33;;
22677;SDS011;26259;50.214;18.620;2023-02-28T10:01:24;13.77;;;8.80;;
22677;SDS011;26259;50.214;18.620;2023-02-28T10:06:44;16.47;;;9.47;;
22677;SDS011;26259;50.214;18.620;2023-02-28T10:09:18;19.03;;;8.90;;
22677;SDS011;26259;50.214;18.620;2023-02-28T10:11:50;18.43;;;8.43;;
22677;SDS011;26259;50.214;18.620;2023-02-28T10:14:18;18.50;;;9.03;;
22677;SDS011;26259;50.214;18.620;2023-02-28T10:19:33;20.10;;;9.97;;
22677;SDS011;26259;50.214;18.620;2023-02-28T10:24:44;19.37;;;10.17;;
22677;SDS011;26259;50.214;18.620;2023-02-28T10:27:18;20.40;;;11.50;;
22677;SDS011;26259;50.214;18.620;2023-02-28T10:29:53;22.40;;;11.10;;
22677;SDS011;26259;50.214;18.620;2023-02-28T10:32:27;20.97;;;11.53;;
22677;SDS011;26259;50.214;18.620;2023-02-28T10:37:42;24.20;;;12.47;;
22677;SDS011;26259;50.214;18.620;2023-02-28T10:40:32;17.47;;;10.83;;
22677;SDS011;26259;50.214;18.620;2023-02-28T10:42:59;18.27;;;10.60;;
22677;SDS011;26259;50.214;18.620;2023-02-28T10:45:34;20.27;;;11.87;;
22677;SDS011;26259;50.214;18.620;2023-02-28T11:01:34;18.53;;;11.60;;
22677;SDS011;26259;50.214;18.620;2023-02-28T11:04:04;23.10;;;13.27;;
22677;SDS011;26259;50.214;18.620;2023-02-28T11:07:04;22.27;;;12.80;;
22677;SDS011;26259;50.214;18.620;2023-02-28T11:09:41;22.10;;;13.40;;
22677;SDS011;26259;50.214;18.620;2023-02-28T11:12:20;26.23;;;12.57;;
22677;SDS011;26259;50.214;18.620;2023-02-28T11:14:47;23.63;;;11.90;;
22677;SDS011;26259;50.214;18.620;2023-02-28T11:17:20;21.47;;;11.70;;
22677;SDS011;26259;50.214;18.620;2023-02-28T11:19:49;22.87;;;12.57;;
22677;SDS011;26259;50.214;18.620;2023-02-28T11:22:18;23.60;;;12.83;;
22677;SDS011;26259;50.214;18.620;2023-02-28T11:24:47;27.03;;;12.63;;
22677;SDS011;26259;50.214;18.620;2023-02-28T11:27:25;22.23;;;12.40;;
22677;SDS011;26259;50.214;18.620;2023-02-28T11:30:11;23.53;;;12.10;;
22677;SDS011;26259;50.214;18.620;2023-02-28T11:32:48;19.07;;;12.20;;
22677;SDS011;26259;50.214;18.620;2023-02-28T11:35:21;25.37;;;12.70;;
22677;SDS011;26259;50.214;18.620;2023-02-28T11:37:55;24.40;;;13.20;;
22677;SDS011;26259;50.214;18.620;2023-02-28T11:40:24;23.70;;;14.07;;
22677;SDS011;26259;50.214;18.620;2023-02-28T11:43:06;26.97;;;14.60;;
22677;SDS011;26259;50.214;18.620;2023-02-28T11:49:00;24.93;;;13.90;;
22677;SDS011;26259;50.214;18.620;2023-02-28T12:09:32;39.90;;;18.47;;
22677;SDS011;26259;50.214;18.620;2023-02-28T12:17:21;26.30;;;16.23;;
22677;SDS011;26259;50.214;18.620;2023-02-28T12:24:53;33.57;;;17.30;;
22677;SDS011;26259;50.214;18.620;2023-02-28T12:27:27;26.43;;;18.03;;
22677;SDS011;26259;50.214;18.620;2023-02-28T12:29:58;31.30;;;17.20;;
22677;SDS011;26259;50.214;18.620;2023-02-28T12:32:39;30.37;;;18.27;;
22677;SDS011;26259;50.214;18.620;2023-02-28T12:37:38;29.83;;;17.07;;
22677;SDS011;26259;50.214;18.620;2023-02-28T12:42:54;28.20;;;17.17;;
22677;SDS011;26259;50.214;18.620;2023-02-28T12:45:33;35.90;;;17.90;;
22677;SDS011;26259;50.214;18.620;2023-02-28T12:48:03;32.10;;;18.47;;
22677;SDS011;26259;50.214;18.620;2023-02-28T12:50:32;30.83;;;18.57;;
22677;SDS011;26259;50.214;18.620;2023-02-28T12:56:07;30.63;;;17.03;;
22677;SDS011;26259;50.214;18.620;2023-02-28T12:58:47;32.43;;;17.93;;
22677;SDS011;26259;50.214;18.620;2023-02-28T13:09:33;32.80;;;19.50;;
22677;SDS011;26259;50.214;18.620;2023-02-28T13:11:58;32.33;;;18.10;;
22677;SDS011;26259;50.214;18.620;2023-02-28T13:22:04;25.00;;;15.10;;
22677;SDS011;26259;50.214;18.620;2023-02-28T13:24:42;26.67;;;16.47;;
22677;SDS011;26259;50.214;18.620;2023-02-28T13:27:20;27.90;;;14.63;;
22677;SDS011;26259;50.214;18.620;2023-02-28T13:29:49;25.80;;;16.33;;
22677;SDS011;26259;50.214;18.620;2023-02-28T13:50:21;24.23;;;15.03;;
22677;SDS011;26259;50.214;18.620;2023-02-28T13:55:26;24.63;;;15.60;;
22677;SDS011;26259;50.214;18.620;2023-02-28T13:58:08;24.23;;;14.50;;
22677;SDS011;26259;50.214;18.620;2023-02-28T14:03:44;28.30;;;15.90;;
22677;SDS011;26259;50.214;18.620;2023-02-28T14:07:07;23.43;;;14.63;;
22677;SDS011;26259;50.214;18.620;2023-02-28T14:09:25;23.17;;;13.87;;
22677;SDS011;26259;50.214;18.620;2023-02-28T14:11:54;25.17;;;15.30;;
22677;SDS011;26259;50.214;18.620;2023-02-28T14:17:04;28.03;;;15.83;;
22677;SDS011;26259;50.214;18.620;2023-02-28T14:19:34;29.67;;;15.67;;
22677;SDS011;26259;50.214;18.620;2023-02-28T14:30:03;24.77;;;13.63;;
22677;SDS011;26259;50.214;18.620;2023-02-28T14:32:51;27.23;;;15.10;;
22677;SDS011;26259;50.214;18.620;2023-02-28T14:38:18;31.47;;;14.63;;
22677;SDS011;26259;50.214;18.620;2023-02-28T14:40:49;22.47;;;14.23;;
22677;SDS011;26259;50.214;18.620;2023-02-28T14:43:24;26.13;;;14.63;;
22677;SDS011;26259;50.214;18.620;2023-02-28T14:45:53;26.27;;;14.33;;
22677;SDS011;26259;50.214;18.620;2023-02-28T14:48:21;26.43;;;15.43;;
22677;SDS011;26259;50.214;18.620;2023-02-28T14:50:52;24.33;;;14.60;;
22677;SDS011;26259;50.214;18.620;2023-02-28T14:53:21;25.17;;;15.63;;
22677;SDS011;26259;50.214;18.620;2023-02-28T14:55:50;28.03;;;16.87;;
22677;SDS011;26259;50.214;18.620;2023-02-28T15:00:57;25.27;;;16.10;;
22677;SDS011;26259;50.214;18.620;2023-02-28T15:06:04;28.90;;;16.03;;
22677;SDS011;26259;50.214;18.620;2023-02-28T15:08:37;26.30;;;16.43;;
22677;SDS011;26259;50.214;18.620;2023-02-28T15:11:12;39.07;;;17.43;;
22677;SDS011;26259;50.214;18.620;2023-02-28T15:13:50;28.17;;;17.43;;
22677;SDS011;26259;50.214;18.620;2023-02-28T15:18:48;26.50;;;15.73;;
22677;SDS011;26259;50.214;18.620;2023-02-28T15:21:18;31.60;;;16.57;;
22677;SDS011;26259;50.214;18.620;2023-02-28T15:23:57;32.97;;;15.73;;
22677;SDS011;26259;50.214;18.620;2023-02-28T15:26:29;23.93;;;14.97;;
22677;SDS011;26259;50.214;18.620;2023-02-28T15:28:59;27.63;;;16.43;;
22677;SDS011;26259;50.214;18.620;2023-02-28T15:31:30;30.13;;;15.30;;
22677;SDS011;26259;50.214;18.620;2023-02-28T15:34:02;29.03;;;14.83;;
22677;SDS011;26259;50.214;18.620;2023-02-28T15:36:30;27.17;;;15.90;;
22677;SDS011;26259;50.214;18.620;2023-02-28T15:38:58;30.50;;;15.53;;
22677;SDS011;26259;50.214;18.620;2023-02-28T15:41:36;28.67;;;15.23;;
22677;SDS011;26259;50.214;18.620;2023-02-28T15:44:16;25.33;;;15.67;;
22677;SDS011;26259;50.214;18.620;2023-02-28T15:47:04;27.07;;;15.77;;
22677;SDS011;26259;50.214;18.620;2023-02-28T15:49:36;29.20;;;15.57;;
22677;SDS011;26259;50.214;18.620;2023-02-28T15:52:05;27.00;;;14.93;;
22677;SDS011;26259;50.214;18.620;2023-02-28T15:54:34;30.33;;;14.43;;
22677;SDS011;26259;50.214;18.620;2023-02-28T15:57:06;30.37;;;16.80;;
22677;SDS011;26259;50.214;18.620;2023-02-28T15:59:38;29.50;;;17.03;;
22677;SDS011;26259;50.214;18.620;2023-02-28T16:04:53;26.90;;;16.20;;
22677;SDS011;26259;50.214;18.620;2023-02-28T16:07:24;35.87;;;16.80;;
22677;SDS011;26259;50.214;18.620;2023-02-28T16:09:50;29.73;;;16.57;;
22677;SDS011;26259;50.214;18.620;2023-02-28T16:12:16;30.40;;;17.43;;
22677;SDS011;26259;50.214;18.620;2023-02-28T16:14:50;31.83;;;17.17;;
22677;SDS011;26259;50.214;18.620;2023-02-28T16:17:21;34.97;;;18.80;;
22677;SDS011;26259;50.214;18.620;2023-02-28T16:19:52;35.77;;;17.57;;
22677;SDS011;26259;50.214;18.620;2023-02-28T16:22:19;34.47;;;18.67;;
22677;SDS011;26259;50.214;18.620;2023-02-28T16:24:44;32.90;;;17.70;;
22677;SDS011;26259;50.214;18.620;2023-02-28T16:27:14;33.70;;;18.67;;
22677;SDS011;26259;50.214;18.620;2023-02-28T16:29:43;27.07;;;16.83;;
22677;SDS011;26259;50.214;18.620;2023-02-28T16:32:11;37.03;;;18.23;;
22677;SDS011;26259;50.214;18.620;2023-02-28T16:34:39;27.83;;;15.43;;
22677;SDS011;26259;50.214;18.620;2023-02-28T16:37:07;33.97;;;17.07;;
22677;SDS011;26259;50.214;18.620;2023-02-28T16:39:36;29.27;;;16.37;;
22677;SDS011;26259;50.214;18.620;2023-02-28T16:42:02;36.37;;;15.67;;
22677;SDS011;26259;50.214;18.620;2023-02-28T16:44:33;29.80;;;15.97;;
22677;SDS011;26259;50.214;18.620;2023-02-28T16:47:00;27.70;;;14.87;;
22677;SDS011;26259;50.214;18.620;2023-02-28T16:49:27;27.77;;;15.77;;
22677;SDS011;26259;50.214;18.620;2023-02-28T16:51:53;30.13;;;16.43;;
22677;SDS011;26259;50.214;18.620;2023-02-28T16:54:18;28.60;;;15.73;;
22677;SDS011;26259;50.214;18.620;2023-02-28T16:56:45;28.40;;;16.63;;
22677;SDS011;26259;50.214;18.620;2023-02-28T16:59:12;28.17;;;15.33;;
22677;SDS011;26259;50.214;18.620;2023-02-28T17:01:38;27.07;;;15.37;;
22677;SDS011;26259;50.214;18.620;2023-02-28T17:04:04;30.90;;;16.70;;
22677;SDS011;26259;50.214;18.620;2023-02-28T17:06:30;31.50;;;16.67;;
22677;SDS011;26259;50.214;18.620;2023-02-28T17:08:56;33.90;;;17.23;;
22677;SDS011;26259;50.214;18.620;2023-02-28T17:11:24;33.93;;;15.53;;
22677;SDS011;26259;50.214;18.620;2023-02-28T17:13:50;30.53;;;16.17;;
22677;SDS011;26259;50.214;18.620;2023-02-28T17:16:28;26.73;;;15.70;;